createdAt,value
2017-12-01T00:01:08.880Z,16.80
2017-12-01T00:03:35.168Z,14.73
2017-12-01T00:06:02.211Z,22.50
2017-12-01T00:08:29.153Z,21.27
2017-12-01T00:10:56.246Z,19.67
2017-12-01T00:13:22.466Z,18.07
2017-12-01T00:15:48.676Z,17.77
2017-12-01T00:18:14.825Z,15.43
2017-12-01T00:20:41.068Z,20.73
2017-12-01T00:23:07.417Z,14.80
2017-12-01T00:25:33.586Z,20.33
2017-12-01T00:27:59.723Z,12.80
2017-12-01T00:30:25.950Z,10.50
2017-12-01T00:32:52.168Z,12.87
2017-12-01T00:35:18.391Z,11.17
2017-12-01T00:37:44.567Z,13.20
2017-12-01T00:40:10.741Z,11.10
2017-12-01T00:42:36.975Z,11.40
2017-12-01T00:45:03.175Z,10.07
2017-12-01T00:47:30.130Z,10.80
2017-12-01T00:49:56.433Z,10.10
2017-12-01T00:52:23.578Z,13.77
2017-12-01T00:54:50.558Z,10.70
2017-12-01T00:57:16.774Z,14.10
2017-12-01T00:59:43.053Z,13.90
2017-12-01T01:02:09.159Z,27.10
2017-12-01T01:04:35.432Z,15.63
2017-12-01T01:07:01.719Z,14.80
2017-12-01T01:09:27.981Z,13.07
2017-12-01T01:11:54.463Z,9.07
2017-12-01T01:14:20.663Z,13.20
2017-12-01T01:16:46.847Z,11.23
2017-12-01T01:19:13.269Z,12.27
2017-12-01T01:21:39.503Z,13.17
2017-12-01T01:24:05.809Z,14.73
2017-12-01T01:26:32.139Z,10.60
2017-12-01T01:28:58.336Z,12.53
2017-12-01T01:31:24.672Z,12.33
2017-12-01T01:33:50.887Z,14.10
2017-12-01T01:36:17.334Z,8.83
2017-12-01T01:38:43.541Z,14.37
2017-12-01T01:41:10.560Z,10.40
2017-12-01T01:43:36.753Z,9.47
2017-12-01T01:46:02.982Z,11.80
2017-12-01T01:48:29.102Z,13.87
2017-12-01T01:50:55.345Z,11.40
2017-12-01T01:53:21.574Z,12.80
2017-12-01T01:55:47.729Z,14.33
2017-12-01T01:58:14.644Z,12.27
2017-12-01T02:00:40.828Z,11.10
2017-12-01T02:03:07.065Z,13.13
2017-12-01T02:05:33.237Z,16.30
2017-12-01T02:07:59.424Z,10.47
2017-12-01T02:10:25.726Z,9.33
2017-12-01T02:12:51.887Z,9.60
2017-12-01T02:15:18.133Z,9.60
2017-12-01T02:17:44.366Z,14.93
2017-12-01T02:20:11.074Z,9.10
2017-12-01T02:22:37.260Z,11.53
2017-12-01T02:25:03.527Z,10.30
2017-12-01T02:27:29.789Z,12.43
2017-12-01T02:29:55.988Z,9.93
2017-12-01T02:32:22.418Z,9.07
2017-12-01T02:34:49.383Z,10.30
2017-12-01T02:37:15.615Z,11.80
2017-12-01T02:39:41.849Z,10.90
2017-12-01T02:42:08.772Z,14.13
2017-12-01T02:44:34.977Z,10.07
2017-12-01T02:47:01.322Z,11.77
2017-12-01T02:49:27.629Z,10.43
2017-12-01T02:51:53.985Z,11.20
2017-12-01T02:54:20.124Z,10.60
2017-12-01T02:56:46.406Z,11.87
2017-12-01T02:59:12.670Z,9.60
2017-12-01T03:01:39.311Z,13.47
2017-12-01T03:04:05.522Z,8.00
2017-12-01T03:06:31.785Z,14.47
2017-12-01T03:08:59.089Z,11.10
2017-12-01T03:11:25.615Z,9.77
2017-12-01T03:13:51.977Z,9.50
2017-12-01T03:16:18.159Z,10.23
2017-12-01T03:18:44.405Z,6.63
2017-12-01T03:21:10.824Z,11.80
2017-12-01T03:23:36.921Z,10.80
2017-12-01T03:26:03.088Z,8.43
2017-12-01T03:28:29.270Z,10.97
2017-12-01T03:30:55.661Z,11.27
2017-12-01T03:33:22.074Z,9.60
2017-12-01T03:35:48.323Z,8.53
2017-12-01T03:38:14.506Z,7.67
2017-12-01T03:40:40.694Z,6.40
2017-12-01T03:43:07.691Z,9.20
2017-12-01T03:45:33.957Z,8.50
2017-12-01T03:48:00.151Z,10.77
2017-12-01T03:50:26.419Z,7.80
2017-12-01T03:52:53.348Z,8.97
2017-12-01T03:55:19.490Z,11.23
2017-12-01T03:57:46.518Z,8.70
2017-12-01T04:00:12.877Z,8.57
2017-12-01T04:02:39.155Z,9.30
2017-12-01T04:05:05.316Z,10.20
2017-12-01T04:07:32.288Z,8.70
2017-12-01T04:09:58.422Z,9.83
2017-12-01T04:12:24.628Z,11.60
2017-12-01T04:14:51.013Z,6.07
2017-12-01T04:17:17.145Z,7.10
2017-12-01T04:19:43.372Z,6.67
2017-12-01T04:22:09.668Z,7.23
2017-12-01T04:24:35.867Z,6.80
2017-12-01T04:27:02.063Z,9.40
2017-12-01T04:29:29.206Z,6.30
2017-12-01T04:31:56.140Z,6.90
2017-12-01T04:34:22.601Z,6.73
2017-12-01T04:36:48.909Z,9.60
2017-12-01T04:39:15.217Z,7.70
2017-12-01T04:41:41.658Z,9.47
2017-12-01T04:44:07.799Z,9.23
2017-12-01T04:46:34.812Z,8.87
2017-12-01T04:49:00.987Z,8.93
2017-12-01T04:51:27.304Z,7.53
2017-12-01T04:53:54.240Z,9.20
2017-12-01T04:56:21.401Z,9.40
2017-12-01T04:58:48.295Z,7.30
2017-12-01T05:01:14.516Z,9.07
2017-12-01T05:03:40.718Z,8.40
2017-12-01T05:06:06.896Z,9.30
2017-12-01T05:08:33.180Z,9.73
2017-12-01T05:10:59.385Z,9.10
2017-12-01T05:13:25.585Z,9.30
2017-12-01T05:15:51.811Z,12.53
2017-12-01T05:18:18.114Z,8.57
2017-12-01T05:20:44.355Z,9.23
2017-12-01T05:23:10.698Z,11.30
2017-12-01T05:25:36.997Z,10.57
2017-12-01T05:28:03.217Z,11.17
2017-12-01T05:30:29.737Z,10.13
2017-12-01T05:32:56.038Z,13.10
2017-12-01T05:35:22.331Z,11.83
2017-12-01T05:37:48.647Z,11.87
2017-12-01T05:40:15.062Z,13.67
2017-12-01T05:42:41.364Z,12.67
2017-12-01T05:45:07.700Z,12.20
2017-12-01T05:47:33.948Z,13.00
2017-12-01T05:50:00.444Z,12.37
2017-12-01T05:52:26.687Z,12.50
2017-12-01T05:54:52.945Z,14.17
2017-12-01T05:57:19.201Z,13.13
2017-12-01T05:59:45.371Z,13.10
2017-12-01T06:02:11.722Z,10.80
2017-12-01T06:04:37.911Z,13.03
2017-12-01T06:07:04.203Z,14.33
2017-12-01T06:09:30.452Z,15.20
2017-12-01T06:11:57.498Z,11.57
2017-12-01T06:14:25.199Z,12.47
2017-12-01T06:16:51.671Z,12.13
2017-12-01T06:19:18.044Z,13.00
2017-12-01T06:21:44.355Z,13.27
2017-12-01T06:24:10.654Z,14.30
2017-12-01T06:26:36.853Z,13.60
2017-12-01T06:29:03.026Z,13.57
2017-12-01T06:31:30.033Z,15.17
2017-12-01T06:33:56.240Z,14.80
2017-12-01T06:36:22.501Z,14.63
2017-12-01T06:38:50.243Z,14.13
2017-12-01T06:41:16.520Z,16.03
2017-12-01T06:43:43.424Z,19.17
2017-12-01T06:46:09.646Z,39.10
2017-12-01T06:48:35.954Z,32.47
2017-12-01T06:51:02.192Z,22.53
2017-12-01T06:53:28.447Z,22.70
2017-12-01T06:55:54.705Z,23.20
2017-12-01T06:58:20.979Z,21.40
2017-12-01T07:00:47.441Z,24.60
2017-12-01T07:03:14.841Z,22.53
2017-12-01T07:05:41.179Z,34.20
2017-12-01T07:08:07.353Z,29.60
2017-12-01T07:10:34.509Z,28.17
2017-12-01T07:13:01.426Z,17.57
2017-12-01T07:15:27.588Z,23.53
2017-12-01T07:17:53.808Z,24.50
2017-12-01T07:20:20.764Z,25.87
2017-12-01T07:22:47.062Z,27.60
2017-12-01T07:25:13.391Z,24.30
2017-12-01T07:27:40.412Z,27.67
2017-12-01T07:30:06.869Z,25.07
2017-12-01T07:32:33.845Z,25.57
2017-12-01T07:35:00.182Z,25.60
2017-12-01T07:37:26.768Z,24.97
2017-12-01T07:39:53.016Z,25.20
2017-12-01T07:42:20.060Z,24.83
2017-12-01T07:44:52.102Z,28.17
2017-12-01T07:47:18.366Z,23.93
2017-12-01T07:49:44.688Z,25.10
2017-12-01T07:52:11.740Z,21.90
2017-12-01T07:54:37.943Z,24.07
2017-12-01T07:57:05.024Z,23.17
2017-12-01T07:59:31.222Z,20.40
2017-12-01T08:01:58.132Z,19.67
2017-12-01T08:04:24.360Z,17.83
2017-12-01T08:06:50.550Z,14.27
2017-12-01T08:09:16.767Z,17.40
2017-12-01T08:11:42.975Z,15.07
2017-12-01T08:14:10.041Z,13.33
2017-12-01T08:16:48.599Z,12.20
2017-12-01T08:19:21.700Z,15.03
2017-12-01T08:22:00.131Z,21.17
2017-12-01T08:24:39.521Z,18.60
2017-12-01T08:27:05.738Z,15.70
2017-12-01T08:29:31.902Z,16.70
2017-12-01T08:31:58.132Z,18.57
2017-12-01T08:34:25.038Z,19.00
2017-12-01T08:36:51.244Z,21.80
2017-12-01T08:39:17.586Z,19.77
2017-12-01T08:41:43.819Z,18.10
2017-12-01T08:44:10.834Z,18.07
2017-12-01T08:46:37.362Z,20.40
2017-12-01T08:49:03.550Z,27.07
2017-12-01T08:51:29.885Z,22.13
2017-12-01T08:53:56.394Z,20.23
2017-12-01T08:56:23.578Z,16.23
2017-12-01T08:58:50.594Z,21.33
2017-12-01T09:01:16.924Z,47.80
2017-12-01T09:03:43.154Z,60.20
2017-12-01T09:06:09.440Z,35.23
2017-12-01T09:08:35.627Z,40.17
2017-12-01T09:11:01.865Z,42.80
2017-12-01T09:13:28.921Z,40.13
2017-12-01T09:15:55.120Z,38.73
2017-12-01T09:18:21.354Z,47.20
2017-12-01T09:20:48.576Z,54.77
2017-12-01T09:23:14.757Z,62.03
2017-12-01T09:25:41.001Z,65.17
2017-12-01T09:28:07.284Z,102.97
2017-12-01T09:30:34.324Z,82.97
2017-12-01T09:33:00.618Z,77.77
2017-12-01T09:35:26.960Z,77.70
2017-12-01T09:37:53.259Z,107.77
2017-12-01T09:40:19.565Z,101.07
2017-12-01T09:42:46.632Z,192.20
2017-12-01T09:45:12.941Z,90.20
2017-12-01T09:47:39.344Z,67.73
2017-12-01T09:50:05.616Z,48.60
2017-12-01T09:52:31.838Z,48.80
2017-12-01T09:54:58.406Z,48.37
2017-12-01T09:57:24.565Z,41.37
2017-12-01T09:59:51.475Z,41.17
2017-12-01T10:02:17.771Z,35.10
2017-12-01T10:04:43.895Z,34.63
2017-12-01T10:07:10.119Z,23.10
2017-12-01T10:09:36.334Z,23.00
2017-12-01T10:12:02.574Z,20.00
2017-12-01T10:14:30.386Z,17.53
2017-12-01T10:16:56.672Z,18.60
2017-12-01T10:19:23.655Z,22.33
2017-12-01T10:21:49.823Z,24.10
2017-12-01T10:24:16.094Z,115.13
2017-12-01T10:26:42.295Z,52.07
2017-12-01T10:29:08.504Z,29.93
2017-12-01T10:31:34.733Z,27.60
2017-12-01T10:34:00.941Z,27.87
2017-12-01T10:36:27.894Z,23.50
2017-12-01T10:38:54.797Z,20.83
2017-12-01T10:41:21.158Z,19.60
2017-12-01T10:43:48.037Z,17.23
2017-12-01T10:46:14.285Z,24.37
2017-12-01T10:48:40.524Z,17.30
2017-12-01T10:51:06.758Z,19.40
2017-12-01T10:53:33.053Z,24.87
2017-12-01T10:55:59.248Z,26.00
2017-12-01T10:58:25.506Z,19.90
2017-12-01T11:00:51.746Z,22.27
2017-12-01T11:03:17.936Z,22.27
2017-12-01T11:05:44.158Z,24.60
2017-12-01T11:08:10.550Z,21.30
2017-12-01T11:10:36.898Z,26.03
2017-12-01T11:13:03.831Z,20.73
2017-12-01T11:15:30.059Z,23.17
2017-12-01T11:17:57.107Z,21.60
2017-12-01T11:20:23.330Z,24.20
2017-12-01T11:22:49.530Z,24.17
2017-12-01T11:25:15.728Z,27.47
2017-12-01T11:27:41.968Z,65.77
2017-12-01T11:30:08.491Z,36.90
2017-12-01T11:32:34.689Z,26.00
2017-12-01T11:35:00.853Z,34.27
2017-12-01T11:37:27.076Z,27.57
2017-12-01T11:39:53.298Z,25.97
2017-12-01T11:42:19.513Z,26.40
2017-12-01T11:44:45.649Z,28.47
2017-12-01T11:47:11.967Z,31.13
2017-12-01T11:49:38.228Z,30.13
2017-12-01T11:52:04.519Z,33.57
2017-12-01T11:54:30.768Z,25.77
2017-12-01T11:56:57.155Z,28.50
2017-12-01T11:59:24.140Z,30.83
2017-12-01T12:01:50.438Z,26.10
2017-12-01T12:04:16.724Z,28.40
2017-12-01T12:06:43.054Z,26.07
2017-12-01T12:09:09.330Z,27.43
2017-12-01T12:11:35.611Z,29.33
2017-12-01T12:14:01.833Z,30.80
2017-12-01T12:16:27.971Z,29.13
2017-12-01T12:18:54.293Z,31.20
2017-12-01T12:21:20.492Z,30.73
2017-12-01T12:23:46.669Z,30.23
2017-12-01T12:26:13.572Z,27.10
2017-12-01T12:28:39.844Z,34.47
2017-12-01T12:31:06.755Z,33.07
2017-12-01T12:33:33.010Z,38.53
2017-12-01T12:36:00.014Z,31.40
2017-12-01T12:38:26.166Z,32.90
2017-12-01T12:40:53.242Z,31.80
2017-12-01T12:43:19.397Z,32.40
2017-12-01T12:45:45.688Z,33.20
2017-12-01T12:48:12.650Z,33.30
2017-12-01T12:50:38.901Z,37.23
2017-12-01T12:53:05.148Z,35.37
2017-12-01T12:55:31.390Z,35.00
2017-12-01T12:57:58.333Z,35.80
2017-12-01T13:00:24.638Z,46.20
2017-12-01T13:02:51.177Z,35.47
2017-12-01T13:05:17.426Z,36.60
2017-12-01T13:07:43.673Z,35.57
2017-12-01T13:10:09.901Z,32.63
2017-12-01T13:12:36.952Z,42.90
2017-12-01T13:15:03.136Z,33.87
2017-12-01T13:17:29.604Z,34.77
2017-12-01T13:19:55.900Z,40.77
2017-12-01T13:22:22.137Z,39.63
2017-12-01T13:24:48.348Z,44.57
2017-12-01T13:27:14.506Z,39.17
2017-12-01T13:29:41.478Z,40.50
2017-12-01T13:32:07.690Z,40.50
2017-12-01T13:34:33.809Z,36.63
2017-12-01T13:37:00.018Z,36.80
2017-12-01T13:39:26.949Z,37.97
2017-12-01T13:41:53.184Z,44.13
2017-12-01T13:44:20.074Z,55.30
2017-12-01T13:46:46.384Z,70.13
2017-12-01T13:49:12.780Z,39.63
2017-12-01T13:51:39.117Z,36.77
2017-12-01T13:54:06.099Z,35.80
2017-12-01T13:56:32.272Z,40.53
2017-12-01T13:58:58.441Z,59.33
2017-12-01T14:01:24.764Z,67.93
2017-12-01T14:03:50.937Z,48.20
2017-12-01T14:06:17.268Z,37.67
2017-12-01T14:08:43.448Z,33.03
2017-12-01T14:11:09.621Z,42.47
2017-12-01T14:13:35.869Z,34.53
2017-12-01T14:16:02.935Z,37.07
2017-12-01T14:18:29.799Z,37.47
2017-12-01T14:20:56.643Z,48.83
2017-12-01T14:23:23.000Z,41.83
2017-12-01T14:25:49.158Z,37.70
2017-12-01T14:28:16.207Z,43.00
2017-12-01T14:30:43.063Z,42.97
2017-12-01T14:33:09.443Z,35.47
2017-12-01T14:35:35.691Z,37.30
2017-12-01T14:38:01.910Z,32.93
2017-12-01T14:40:28.102Z,32.40
2017-12-01T14:42:54.407Z,32.80
2017-12-01T14:45:20.726Z,35.87
2017-12-01T14:47:47.648Z,33.97
2017-12-01T14:50:14.647Z,39.37
2017-12-01T14:52:40.851Z,81.10
2017-12-01T14:55:07.300Z,39.23
2017-12-01T14:57:33.635Z,37.80
2017-12-01T14:59:59.916Z,41.40
2017-12-01T15:02:26.945Z,39.93
2017-12-01T15:04:53.235Z,46.50
2017-12-01T15:07:19.537Z,51.03
2017-12-01T15:09:45.925Z,58.07
2017-12-01T15:12:12.290Z,44.10
2017-12-01T15:14:39.230Z,45.37
2017-12-01T15:17:05.451Z,42.83
2017-12-01T15:19:32.440Z,42.20
2017-12-01T15:21:58.945Z,42.70
2017-12-01T15:24:25.226Z,43.80
2017-12-01T15:26:51.495Z,46.73
2017-12-01T15:29:18.746Z,68.40
2017-12-01T15:31:44.957Z,88.60
2017-12-01T15:34:12.006Z,96.37
2017-12-01T15:36:38.941Z,144.40
2017-12-01T15:39:06.085Z,152.30
2017-12-01T15:41:32.437Z,139.57
2017-12-01T15:43:58.935Z,139.67
2017-12-01T15:46:25.150Z,105.13
2017-12-01T15:48:51.486Z,100.97
2017-12-01T15:51:17.934Z,62.33
2017-12-01T15:53:44.278Z,45.20
2017-12-01T15:56:11.388Z,41.10
2017-12-01T15:58:37.760Z,51.23
2017-12-01T16:01:04.818Z,56.70
2017-12-01T16:03:31.074Z,61.47
2017-12-01T16:05:57.382Z,62.37
2017-12-01T16:08:23.606Z,49.33
2017-12-01T16:10:50.012Z,47.13
2017-12-01T16:13:17.205Z,45.37
2017-12-01T16:15:43.387Z,52.40
2017-12-01T16:18:10.283Z,37.23
2017-12-01T16:20:36.499Z,42.17
2017-12-01T16:23:02.692Z,52.23
2017-12-01T16:25:29.722Z,52.37
2017-12-01T16:27:56.102Z,50.57
2017-12-01T16:30:22.322Z,47.83
2017-12-01T16:32:51.226Z,42.73
2017-12-01T16:35:14.968Z,46.23
2017-12-01T16:37:41.136Z,45.57
2017-12-01T16:40:07.743Z,45.20
2017-12-01T16:42:34.214Z,43.30
2017-12-01T16:45:00.558Z,36.30
2017-12-01T16:47:27.650Z,42.53
2017-12-01T16:49:53.895Z,41.50
2017-12-01T16:52:20.118Z,39.27
2017-12-01T16:54:46.448Z,43.63
2017-12-01T16:57:12.579Z,45.00
2017-12-01T16:59:38.765Z,176.10
2017-12-01T17:02:05.185Z,184.30
2017-12-01T17:04:32.184Z,94.03
2017-12-01T17:06:58.590Z,433.37
2017-12-01T17:09:24.856Z,85.40
2017-12-01T17:11:51.236Z,158.30
2017-12-01T17:14:17.432Z,76.47
2017-12-01T17:16:44.334Z,57.67
2017-12-01T17:19:10.552Z,76.13
2017-12-01T17:21:36.763Z,49.67
2017-12-01T17:24:02.904Z,46.40
2017-12-01T17:26:29.379Z,41.67
2017-12-01T17:28:55.693Z,36.83
2017-12-01T17:31:22.929Z,59.83
2017-12-01T17:33:49.328Z,37.20
2017-12-01T17:36:15.535Z,30.67
2017-12-01T17:38:42.565Z,30.63
2017-12-01T17:41:09.641Z,34.33
2017-12-01T17:43:35.993Z,26.67
2017-12-01T17:46:02.307Z,29.53
2017-12-01T17:48:28.576Z,26.33
2017-12-01T17:50:54.913Z,27.60
2017-12-01T17:53:21.228Z,25.97
2017-12-01T17:55:47.714Z,25.50
2017-12-01T17:58:14.009Z,27.30
2017-12-01T18:00:40.409Z,30.03
2017-12-01T18:03:06.677Z,30.20
2017-12-01T18:05:33.735Z,29.87
2017-12-01T18:08:00.729Z,31.40
2017-12-01T18:10:26.927Z,28.03
2017-12-01T18:12:53.177Z,30.10
2017-12-01T18:15:19.302Z,30.13
2017-12-01T18:17:45.429Z,29.93
2017-12-01T18:20:11.633Z,27.30
2017-12-01T18:22:37.840Z,29.50
2017-12-01T18:25:04.045Z,30.43
2017-12-01T18:27:31.021Z,25.70
2017-12-01T18:29:57.315Z,26.20
2017-12-01T18:32:24.223Z,28.53
2017-12-01T18:34:51.488Z,26.50
2017-12-01T18:37:17.866Z,26.70
2017-12-01T18:39:44.250Z,34.00
2017-12-01T18:42:10.578Z,30.90
2017-12-01T18:44:36.883Z,31.00
2017-12-01T18:47:03.171Z,28.73
2017-12-01T18:49:30.137Z,34.23
2017-12-01T18:51:56.456Z,36.80
2017-12-01T18:54:22.840Z,29.23
2017-12-01T18:56:49.053Z,29.63
2017-12-01T18:59:16.314Z,31.40
2017-12-01T19:01:42.799Z,32.83
2017-12-01T19:04:09.215Z,28.27
2017-12-01T19:06:36.493Z,29.07
2017-12-01T19:09:02.837Z,32.17
2017-12-01T19:11:29.059Z,34.00
2017-12-01T19:13:55.360Z,28.40
2017-12-01T19:16:21.916Z,29.57
2017-12-01T19:18:48.087Z,29.20
2017-12-01T19:21:14.517Z,27.37
2017-12-01T19:23:40.830Z,34.50
2017-12-01T19:26:07.212Z,30.07
2017-12-01T19:28:33.452Z,26.03
2017-12-01T19:30:59.607Z,31.13
2017-12-01T19:33:25.977Z,30.33
2017-12-01T19:35:52.939Z,37.63
2017-12-01T19:38:19.205Z,35.53
2017-12-01T19:40:45.484Z,63.03
2017-12-01T19:43:12.551Z,41.90
2017-12-01T19:45:38.803Z,36.87
2017-12-01T19:48:05.026Z,34.17
2017-12-01T19:50:31.282Z,30.50
2017-12-01T19:52:57.460Z,35.47
2017-12-01T19:55:23.740Z,29.87
2017-12-01T19:57:50.709Z,32.10
2017-12-01T20:00:16.908Z,32.03
2017-12-01T20:02:43.190Z,33.53
2017-12-01T20:05:10.006Z,35.73
2017-12-01T20:07:36.274Z,31.30
2017-12-01T20:10:02.488Z,36.00
2017-12-01T20:12:28.874Z,28.17
2017-12-01T20:14:56.025Z,43.43
2017-12-01T20:17:22.950Z,48.03
2017-12-01T20:19:49.157Z,43.53
2017-12-01T20:22:15.397Z,43.57
2017-12-01T20:24:41.680Z,38.93
2017-12-01T20:27:07.912Z,35.33
2017-12-01T20:29:34.098Z,38.00
2017-12-01T20:32:01.083Z,32.73
2017-12-01T20:34:27.354Z,37.80
2017-12-01T20:36:53.566Z,50.80
2017-12-01T20:39:19.940Z,36.10
2017-12-01T20:41:46.938Z,34.17
2017-12-01T20:44:13.106Z,35.93
2017-12-01T20:46:40.144Z,35.20
2017-12-01T20:49:07.241Z,30.07
2017-12-01T20:51:33.479Z,28.33
2017-12-01T20:53:59.744Z,31.13
2017-12-01T20:56:26.666Z,31.47
2017-12-01T20:58:53.011Z,33.77
2017-12-01T21:01:20.065Z,32.50
2017-12-01T21:03:47.047Z,38.43
2017-12-01T21:06:13.259Z,33.93
2017-12-01T21:08:39.511Z,32.10
2017-12-01T21:11:05.866Z,34.53
2017-12-01T21:13:32.302Z,32.53
2017-12-01T21:15:58.453Z,32.40
2017-12-01T21:18:25.446Z,28.57
2017-12-01T21:20:51.721Z,33.20
2017-12-01T21:23:18.699Z,32.27
2017-12-01T21:25:44.970Z,31.80
2017-12-01T21:28:11.471Z,43.80
2017-12-01T21:30:37.756Z,38.63
2017-12-01T21:33:04.799Z,42.73
2017-12-01T21:35:31.852Z,45.00
2017-12-01T21:37:58.909Z,35.57
2017-12-01T21:40:25.274Z,41.20
2017-12-01T21:42:51.853Z,35.30
2017-12-01T21:45:18.832Z,39.63
2017-12-01T21:47:45.061Z,43.20
2017-12-01T21:50:11.241Z,50.27
2017-12-01T21:52:37.531Z,45.53
2017-12-01T21:55:03.744Z,43.00
2017-12-01T21:57:29.935Z,38.13
2017-12-01T21:59:56.911Z,38.00
2017-12-01T22:02:23.198Z,38.03
2017-12-01T22:04:50.238Z,34.97
2017-12-01T22:07:16.414Z,37.00
2017-12-01T22:09:42.588Z,39.07
2017-12-01T22:12:08.926Z,32.77
2017-12-01T22:14:35.883Z,30.77
2017-12-01T22:17:02.900Z,30.57
2017-12-01T22:19:29.126Z,30.60
2017-12-01T22:21:55.417Z,33.47
2017-12-01T22:24:21.570Z,36.57
2017-12-01T22:26:47.830Z,34.83
2017-12-01T22:29:14.809Z,37.80
2017-12-01T22:31:41.245Z,35.43
2017-12-01T22:34:07.542Z,35.30
2017-12-01T22:36:33.811Z,33.40
2017-12-01T22:39:00.193Z,34.53
2017-12-01T22:41:26.468Z,33.93
2017-12-01T22:43:52.796Z,34.40
2017-12-01T22:46:19.827Z,31.73
2017-12-01T22:48:46.122Z,32.70
2017-12-01T22:51:13.050Z,34.00
2017-12-01T22:53:39.267Z,37.00
2017-12-01T22:56:05.570Z,32.60
2017-12-01T22:58:31.837Z,30.27
2017-12-01T23:00:58.983Z,31.33
2017-12-01T23:03:25.243Z,29.93
2017-12-01T23:05:51.452Z,33.87
2017-12-01T23:08:18.557Z,30.57
2017-12-01T23:10:44.816Z,29.90
2017-12-01T23:13:11.759Z,34.37
2017-12-01T23:15:37.874Z,32.77
2017-12-01T23:18:04.155Z,30.00
2017-12-01T23:20:30.344Z,31.20
2017-12-01T23:22:57.368Z,30.73
2017-12-01T23:25:23.538Z,26.30
2017-12-01T23:27:49.815Z,26.73
2017-12-01T23:30:16.214Z,25.50
2017-12-01T23:32:42.648Z,23.63
2017-12-01T23:35:08.904Z,27.40
2017-12-01T23:37:35.163Z,23.23
2017-12-01T23:40:02.202Z,23.90
2017-12-01T23:42:29.199Z,27.27
2017-12-01T23:44:55.430Z,26.83
2017-12-01T23:47:21.651Z,25.87
2017-12-01T23:49:47.895Z,29.77
2017-12-01T23:52:14.256Z,25.70
2017-12-01T23:54:41.261Z,27.47
2017-12-01T23:57:08.336Z,27.30
2017-12-01T23:59:34.601Z,34.03
